Time;durP1;ratioP1;P1;durP2;ratioP2;P2;SDS_P1;SDS_P2;PMS_P1;PMS_P2;Temp;Humidity;BMP_temperature;BMP_pressure;BME280_temperature;BME280_humidity;BME280_pressure;Samples;Min_cycle;Max_cycle;Signal;HPM_P1;HPM_P2
2024/02/17 00:00:49;;;;;;;7.63;5.75;;;;;;;;;;10283390;28;20390;-61
2024/02/17 00:05:50;;;;;;;7.25;5.65;;;;;;;;;;10283302;28;20109;-61
2024/02/17 00:10:51;;;;;;;7.68;5.65;;;;;;;;;;10273380;28;20125;-61
2024/02/17 00:15:51;;;;;;;8.10;5.70;;;;;;;;;;10270580;28;20035;-62
2024/02/17 00:20:52;;;;;;;6.22;5.28;;;;;;;;;;10280886;28;20519;-61
2024/02/17 00:25:52;;;;;;;6.85;5.35;;;;;;;;;;10275988;28;20027;-61
2024/02/17 00:30:53;;;;;;;7.25;5.10;;;;;;;;;;10284593;28;20031;-61
2024/02/17 00:35:56;;;;;;;6.32;5.65;;;;;;;;;;10283703;28;20059;-61
2024/02/17 00:40:56;;;;;;;6.80;5.43;;;;;;;;;;10280915;28;20445;-61
2024/02/17 00:45:57;;;;;;;5.75;4.97;;;;;;;;;;10283117;28;20043;-61
2024/02/17 00:50:59;;;;;;;6.85;5.18;;;;;;;;;;10282801;28;20039;-61
2024/02/17 00:55:59;;;;;;;6.70;5.53;;;;;;;;;;10283333;28;20053;-61
2024/02/17 01:01:00;;;;;;;6.03;5.25;;;;;;;;;;10273526;28;20035;-61
2024/02/17 01:06:03;;;;;;;5.72;5.00;;;;;;;;;;10246317;28;20109;-61
2024/02/17 01:11:03;;;;;;;5.90;5.30;;;;;;;;;;10268701;28;20034;-61
2024/02/17 01:16:04;;;;;;;6.15;5.28;;;;;;;;;;10281404;28;20075;-61
2024/02/17 01:21:05;;;;;;;6.45;5.35;;;;;;;;;;10282614;28;20041;-61
2024/02/17 01:26:06;;;;;;;9.48;5.40;;;;;;;;;;10289817;28;20038;-61
2024/02/17 01:31:07;;;;;;;7.10;5.47;;;;;;;;;;10282464;28;20497;-61
2024/02/17 01:36:17;;;;;;;5.68;5.03;;;;;;;;;;10277247;28;20062;-61
2024/02/17 01:41:18;;;;;;;6.25;5.47;;;;;;;;;;10276729;28;20474;-61
2024/02/17 01:46:19;;;;;;;6.25;5.18;;;;;;;;;;10277414;28;20027;-61
2024/02/17 01:51:19;;;;;;;6.68;5.05;;;;;;;;;;10290275;28;20028;-61
2024/02/17 01:56:21;;;;;;;6.20;5.60;;;;;;;;;;10276281;28;20494;-61
2024/02/17 02:01:22;;;;;;;6.72;5.57;;;;;;;;;;10288171;28;20031;-61
2024/02/17 02:06:24;;;;;;;6.20;5.20;;;;;;;;;;10283323;28;20077;-61
2024/02/17 02:11:24;;;;;;;6.57;5.28;;;;;;;;;;10260615;28;20039;-61
2024/02/17 02:16:25;;;;;;;5.80;4.90;;;;;;;;;;10288887;28;20042;-61
2024/02/17 02:21:25;;;;;;;6.38;5.43;;;;;;;;;;10287695;28;20034;-61
2024/02/17 02:26:26;;;;;;;8.68;5.78;;;;;;;;;;10288072;28;20031;-61
2024/02/17 02:31:27;;;;;;;5.88;4.97;;;;;;;;;;10288046;28;20030;-61
2024/02/17 02:36:28;;;;;;;8.07;6.10;;;;;;;;;;10284961;28;20054;-61
2024/02/17 02:41:28;;;;;;;7.20;5.38;;;;;;;;;;10278043;28;21203;-61
2024/02/17 02:46:29;;;;;;;7.28;5.40;;;;;;;;;;10282699;28;20168;-61
2024/02/17 02:51:29;;;;;;;6.47;4.65;;;;;;;;;;10281624;28;20020;-61
2024/02/17 02:56:30;;;;;;;5.47;4.80;;;;;;;;;;10271390;28;20048;-61
2024/02/17 03:01:30;;;;;;;7.05;5.35;;;;;;;;;;10283077;28;20081;-61
2024/02/17 03:06:31;;;;;;;6.43;5.72;;;;;;;;;;10278391;28;20027;-61
2024/02/17 03:11:32;;;;;;;6.53;5.38;;;;;;;;;;10262499;28;20031;-61
2024/02/17 03:16:33;;;;;;;5.85;4.78;;;;;;;;;;10268010;28;20043;-61
2024/02/17 03:21:34;;;;;;;5.57;5.00;;;;;;;;;;10273509;28;20386;-61
2024/02/17 03:26:36;;;;;;;5.32;4.82;;;;;;;;;;10284019;28;20039;-61
2024/02/17 03:31:36;;;;;;;6.38;5.40;;;;;;;;;;10287149;28;20034;-61
2024/02/17 03:36:37;;;;;;;6.00;5.28;;;;;;;;;;10285640;28;20046;-61
2024/02/17 03:41:38;;;;;;;6.65;5.40;;;;;;;;;;10284428;28;20053;-61
2024/02/17 03:46:38;;;;;;;5.30;4.78;;;;;;;;;;10284662;28;20312;-61
2024/02/17 03:51:39;;;;;;;5.90;5.00;;;;;;;;;;10283254;28;20054;-61
2024/02/17 03:56:39;;;;;;;5.85;4.75;;;;;;;;;;10283367;28;20105;-61
2024/02/17 04:01:40;;;;;;;7.20;4.80;;;;;;;;;;10258299;28;20047;-61
2024/02/17 04:06:41;;;;;;;5.85;5.20;;;;;;;;;;10281760;28;20474;-60
2024/02/17 04:11:42;;;;;;;5.32;4.65;;;;;;;;;;10284822;28;20023;-61
2024/02/17 04:16:42;;;;;;;5.53;4.68;;;;;;;;;;10268314;28;20037;-60
2024/02/17 04:21:43;;;;;;;6.32;5.07;;;;;;;;;;10283659;28;20029;-61
2024/02/17 04:26:44;;;;;;;6.38;4.90;;;;;;;;;;10284720;28;20484;-61
2024/02/17 04:31:44;;;;;;;5.63;5.03;;;;;;;;;;10283324;28;20027;-60
2024/02/17 04:36:45;;;;;;;6.00;5.00;;;;;;;;;;10272483;28;20517;-60
2024/02/17 04:41:46;;;;;;;5.47;4.97;;;;;;;;;;10272639;28;20034;-61
2024/02/17 04:46:47;;;;;;;6.13;5.03;;;;;;;;;;10272384;28;20673;-61
2024/02/17 04:51:47;;;;;;;5.72;4.95;;;;;;;;;;10272285;28;20074;-61
2024/02/17 04:56:48;;;;;;;4.88;4.40;;;;;;;;;;10273457;28;20151;-61
2024/02/17 05:01:48;;;;;;;5.40;4.90;;;;;;;;;;10277521;28;20089;-61
2024/02/17 05:06:50;;;;;;;7.03;5.63;;;;;;;;;;10269623;28;20027;-61
2024/02/17 05:11:51;;;;;;;5.32;4.82;;;;;;;;;;10256918;28;20035;-61
2024/02/17 05:16:52;;;;;;;5.32;4.78;;;;;;;;;;10269413;28;20035;-61
2024/02/17 05:21:52;;;;;;;5.45;4.90;;;;;;;;;;10267044;28;20039;-61
2024/02/17 05:26:53;;;;;;;5.78;5.03;;;;;;;;;;10281400;28;20046;-61
2024/02/17 05:31:54;;;;;;;4.88;4.38;;;;;;;;;;10269188;28;20046;-61
2024/02/17 05:36:56;;;;;;;5.75;5.15;;;;;;;;;;10263267;28;20047;-61
2024/02/17 05:41:58;;;;;;;7.93;5.05;;;;;;;;;;10276230;28;20037;-61
2024/02/17 05:46:59;;;;;;;5.55;5.00;;;;;;;;;;10276539;28;20487;-61
2024/02/17 05:51:59;;;;;;;5.35;4.60;;;;;;;;;;10274804;28;20043;-61
2024/02/17 05:57:00;;;;;;;6.35;5.50;;;;;;;;;;10268487;28;20019;-61
2024/02/17 06:02:00;;;;;;;5.20;4.70;;;;;;;;;;10276486;28;20069;-61
2024/02/17 06:07:02;;;;;;;5.63;4.90;;;;;;;;;;10284208;28;20034;-61
2024/02/17 06:12:03;;;;;;;5.00;4.55;;;;;;;;;;10289955;28;20043;-61
2024/02/17 06:17:06;;;;;;;5.47;4.72;;;;;;;;;;10287941;28;20042;-61
2024/02/17 06:22:07;;;;;;;5.80;5.20;;;;;;;;;;10276724;28;20038;-61
2024/02/17 06:27:08;;;;;;;5.65;4.95;;;;;;;;;;10268908;28;20034;-61
2024/02/17 06:32:09;;;;;;;5.57;4.88;;;;;;;;;;10275184;28;20042;-61
2024/02/17 06:37:09;;;;;;;5.22;4.68;;;;;;;;;;10279460;28;20410;-61
2024/02/17 06:42:11;;;;;;;6.43;5.47;;;;;;;;;;10275435;28;20041;-61
2024/02/17 06:47:12;;;;;;;5.60;4.90;;;;;;;;;;10262549;28;20386;-61
2024/02/17 06:52:12;;;;;;;6.35;4.85;;;;;;;;;;10287238;28;20030;-61
2024/02/17 06:57:13;;;;;;;5.10;4.60;;;;;;;;;;10286623;28;20034;-61
2024/02/17 07:02:15;;;;;;;5.78;4.90;;;;;;;;;;10270931;28;20031;-61
2024/02/17 07:07:16;;;;;;;6.55;4.75;;;;;;;;;;10287002;28;20054;-61
2024/02/17 07:12:16;;;;;;;5.20;4.70;;;;;;;;;;10285704;28;20118;-61
2024/02/17 07:17:17;;;;;;;5.47;4.80;;;;;;;;;;10271733;28;20159;-61
2024/02/17 07:22:18;;;;;;;5.20;4.70;;;;;;;;;;10282778;28;20497;-62
2024/02/17 07:27:19;;;;;;;6.63;5.38;;;;;;;;;;10267912;28;20285;-62
2024/02/17 07:32:22;;;;;;;5.50;5.00;;;;;;;;;;10268555;28;20431;-62
2024/02/17 07:37:23;;;;;;;5.68;4.32;;;;;;;;;;10272162;28;20485;-62
2024/02/17 07:42:24;;;;;;;7.30;4.78;;;;;;;;;;10283798;28;20035;-62
2024/02/17 07:47:24;;;;;;;5.80;4.97;;;;;;;;;;10277266;28;20034;-62
2024/02/17 07:52:25;;;;;;;5.53;4.85;;;;;;;;;;10282427;28;20490;-60
2024/02/17 07:57:27;;;;;;;5.70;4.22;;;;;;;;;;10285277;28;20178;-60
2024/02/17 08:02:28;;;;;;;4.57;4.18;;;;;;;;;;10280750;28;20031;-60
2024/02/17 08:07:28;;;;;;;4.85;4.35;;;;;;;;;;10281033;28;20018;-60
2024/02/17 08:12:29;;;;;;;4.60;4.20;;;;;;;;;;10271272;28;20039;-60
2024/02/17 08:17:30;;;;;;;6.30;4.70;;;;;;;;;;10284890;28;20031;-60
2024/02/17 08:22:30;;;;;;;5.30;4.55;;;;;;;;;;10283099;28;20046;-61
2024/02/17 08:27:35;;;;;;;4.82;4.05;;;;;;;;;;10284508;28;20027;-60
2024/02/17 08:32:36;;;;;;;5.68;4.53;;;;;;;;;;10270391;28;20026;-61
2024/02/17 08:37:37;;;;;;;7.47;4.88;;;;;;;;;;10283645;28;20502;-61
2024/02/17 08:42:37;;;;;;;4.68;4.20;;;;;;;;;;10270617;28;20034;-61
2024/02/17 08:47:38;;;;;;;4.63;4.13;;;;;;;;;;10282611;28;20639;-60
2024/02/17 08:52:39;;;;;;;5.38;4.88;;;;;;;;;;10282475;28;20023;-59
2024/02/17 08:57:40;;;;;;;8.73;5.47;;;;;;;;;;10278623;28;20019;-59
2024/02/17 09:02:47;;;;;;;6.75;6.05;;;;;;;;;;10266945;28;20034;-59
2024/02/17 09:07:48;;;;;;;6.88;5.93;;;;;;;;;;10282965;28;20113;-59
2024/02/17 09:12:49;;;;;;;9.63;6.53;;;;;;;;;;10283747;28;20043;-59
2024/02/17 09:17:49;;;;;;;8.38;6.75;;;;;;;;;;10274919;28;20066;-60
2024/02/17 09:22:50;;;;;;;16.48;7.65;;;;;;;;;;10270239;28;20073;-59
2024/02/17 09:27:51;;;;;;;9.57;7.30;;;;;;;;;;10270045;28;20055;-59
2024/02/17 09:32:51;;;;;;;9.00;7.63;;;;;;;;;;10282111;28;20034;-59
2024/02/17 09:37:52;;;;;;;10.05;7.50;;;;;;;;;;10271726;28;20050;-59
2024/02/17 09:42:52;;;;;;;10.85;8.00;;;;;;;;;;10272204;28;20045;-59
2024/02/17 09:47:55;;;;;;;10.15;8.43;;;;;;;;;;10276886;28;20238;-59
2024/02/17 09:52:57;;;;;;;9.40;8.13;;;;;;;;;;10277357;28;20126;-59
2024/02/17 09:57:58;;;;;;;11.40;8.77;;;;;;;;;;10271115;28;20035;-59
2024/02/17 10:02:59;;;;;;;10.13;8.43;;;;;;;;;;10277379;28;20035;-59
2024/02/17 10:08:04;;;;;;;13.68;9.30;;;;;;;;;;10266535;28;20439;-59
2024/02/17 10:13:06;;;;;;;12.38;9.02;;;;;;;;;;10283413;28;20560;-59
2024/02/17 10:18:07;;;;;;;13.50;9.40;;;;;;;;;;10279612;28;20412;-59
2024/02/17 10:23:07;;;;;;;12.43;9.45;;;;;;;;;;10275693;28;20030;-59
2024/02/17 10:28:08;;;;;;;16.00;10.35;;;;;;;;;;10277483;28;20474;-59
2024/02/17 10:33:13;;;;;;;12.13;9.23;;;;;;;;;;10263610;28;20059;-59
2024/02/17 10:38:15;;;;;;;14.35;10.55;;;;;;;;;;10276520;28;20077;-59
2024/02/17 10:43:16;;;;;;;14.02;9.73;;;;;;;;;;10274911;28;20088;-59
2024/02/17 10:48:19;;;;;;;12.32;9.60;;;;;;;;;;10285226;28;20089;-59
2024/02/17 10:53:58;;;;;;;11.05;9.57;;;;;;;;;;10274463;28;20121;-59
2024/02/17 10:59:03;;;;;;;14.45;10.35;;;;;;;;;;10242637;28;20166;-59
2024/02/17 11:04:04;;;;;;;12.85;9.90;;;;;;;;;;10224105;28;20043;-59
2024/02/17 11:09:05;;;;;;;14.38;11.07;;;;;;;;;;10237403;28;20047;-59
2024/02/17 11:14:42;;;;;;;13.57;11.10;;;;;;;;;;10216392;29;20374;-59
2024/02/17 11:19:47;;;;;;;13.70;11.00;;;;;;;;;;10209173;28;20035;-60
2024/02/17 11:24:48;;;;;;;17.27;11.90;;;;;;;;;;10238780;28;20049;-60
2024/02/17 11:29:49;;;;;;;14.90;11.70;;;;;;;;;;10223572;29;20190;-59
2024/02/17 11:34:52;;;;;;;17.13;11.55;;;;;;;;;;10257447;28;20260;-59
2024/02/17 11:39:53;;;;;;;14.38;11.98;;;;;;;;;;10304398;23;20077;-63
2024/02/17 11:44:55;;;;;;;18.40;11.38;;;;;;;;;;10304051;28;20042;-64
2024/02/17 11:50:09;;;;;;;15.75;11.00;;;;;;;;;;10282604;28;20458;-63
2024/02/17 11:55:12;;;;;;;12.57;10.85;;;;;;;;;;10279040;28;20038;-64
2024/02/17 12:00:15;;;;;;;13.55;11.07;;;;;;;;;;10273094;28;20039;-66
2024/02/17 12:05:16;;;;;;;14.75;10.38;;;;;;;;;;10280904;28;20033;-66
2024/02/17 12:10:16;;;;;;;14.07;10.70;;;;;;;;;;10277533;28;20498;-66
2024/02/17 12:15:17;;;;;;;17.92;10.07;;;;;;;;;;10285763;28;20039;-66
2024/02/17 12:20:18;;;;;;;14.02;10.50;;;;;;;;;;10262773;28;20066;-66
2024/02/17 12:25:19;;;;;;;13.10;10.95;;;;;;;;;;10278936;28;20076;-64
2024/02/17 12:30:21;;;;;;;13.32;9.98;;;;;;;;;;10283973;28;20027;-64
2024/02/17 12:35:22;;;;;;;21.25;9.85;;;;;;;;;;10281905;28;20035;-61
2024/02/17 12:40:23;;;;;;;15.05;10.00;;;;;;;;;;10277998;28;20061;-62
2024/02/17 12:45:27;;;;;;;13.43;10.48;;;;;;;;;;10287756;28;20065;-62
2024/02/17 12:50:28;;;;;;;16.38;11.15;;;;;;;;;;10283070;28;20035;-62
2024/02/17 12:55:30;;;;;;;14.63;10.45;;;;;;;;;;10282714;28;20382;-62
2024/02/17 13:00:31;;;;;;;11.90;10.18;;;;;;;;;;10282074;28;20027;-62
2024/02/17 13:05:32;;;;;;;11.32;9.48;;;;;;;;;;10259345;28;20041;-62
2024/02/17 13:10:33;;;;;;;10.98;9.10;;;;;;;;;;10277289;28;20034;-62
2024/02/17 13:15:34;;;;;;;12.00;9.00;;;;;;;;;;10280536;28;20285;-62
2024/02/17 13:20:35;;;;;;;13.07;9.52;;;;;;;;;;10282284;28;20034;-62
2024/02/17 13:25:35;;;;;;;13.77;9.63;;;;;;;;;;10281920;28;20026;-62
2024/02/17 13:30:36;;;;;;;11.82;9.73;;;;;;;;;;10282223;28;20038;-62
2024/02/17 13:35:37;;;;;;;12.70;9.30;;;;;;;;;;10269479;28;20505;-63
2024/02/17 13:40:37;;;;;;;11.25;9.00;;;;;;;;;;10261018;28;20062;-63
2024/02/17 13:46:04;;;;;;;11.75;9.50;;;;;;;;;;10278020;28;20039;-62
2024/02/17 13:51:05;;;;;;;11.93;9.60;;;;;;;;;;10283485;28;20038;-63
2024/02/17 13:56:05;;;;;;;11.02;8.88;;;;;;;;;;10272618;28;20035;-62
2024/02/17 14:01:07;;;;;;;12.95;9.52;;;;;;;;;;10278547;28;20475;-62
2024/02/17 14:06:08;;;;;;;12.93;9.18;;;;;;;;;;10275846;28;20494;-62
2024/02/17 14:11:09;;;;;;;12.63;9.50;;;;;;;;;;10272920;28;20034;-62
2024/02/17 14:16:12;;;;;;;11.25;8.55;;;;;;;;;;10281695;28;20471;-62
2024/02/17 14:21:13;;;;;;;11.02;9.25;;;;;;;;;;10281125;28;20459;-62
2024/02/17 14:26:13;;;;;;;11.00;8.43;;;;;;;;;;10278075;28;20030;-62
2024/02/17 14:31:15;;;;;;;13.00;9.32;;;;;;;;;;10275547;28;20088;-62
2024/02/17 14:36:16;;;;;;;10.77;8.60;;;;;;;;;;10289267;28;20039;-62
2024/02/17 14:41:16;;;;;;;12.63;9.02;;;;;;;;;;10288494;28;20086;-62
2024/02/17 14:46:17;;;;;;;11.95;9.35;;;;;;;;;;10287994;28;20065;-62
2024/02/17 14:51:18;;;;;;;11.63;8.98;;;;;;;;;;10260800;28;20062;-62
2024/02/17 14:56:18;;;;;;;12.65;9.32;;;;;;;;;;10302701;28;20039;-62
2024/02/17 15:01:19;;;;;;;11.02;8.88;;;;;;;;;;10287043;28;20490;-62
2024/02/17 15:06:19;;;;;;;11.23;9.50;;;;;;;;;;10283959;28;20563;-62
2024/02/17 15:11:20;;;;;;;12.38;9.40;;;;;;;;;;10286345;28;20486;-62
2024/02/17 15:16:21;;;;;;;9.30;8.32;;;;;;;;;;10286260;28;20054;-62
2024/02/17 15:21:21;;;;;;;15.55;8.68;;;;;;;;;;10286383;28;20042;-62
2024/02/17 15:26:22;;;;;;;10.55;8.32;;;;;;;;;;10282118;28;20375;-62
2024/02/17 15:31:22;;;;;;;13.35;9.13;;;;;;;;;;10281373;28;20446;-62
2024/02/17 15:36:23;;;;;;;10.00;8.60;;;;;;;;;;10282453;28;20500;-62
2024/02/17 15:41:23;;;;;;;11.60;8.75;;;;;;;;;;10284327;28;20399;-62
2024/02/17 15:46:24;;;;;;;11.02;8.68;;;;;;;;;;10285129;28;20430;-62
2024/02/17 15:51:25;;;;;;;9.55;8.07;;;;;;;;;;10286583;28;20034;-62
2024/02/17 15:56:26;;;;;;;10.15;8.02;;;;;;;;;;10269221;28;20031;-62
2024/02/17 16:01:26;;;;;;;12.73;8.82;;;;;;;;;;10285567;28;20134;-62
2024/02/17 16:06:27;;;;;;;11.68;8.95;;;;;;;;;;10268370;28;20030;-62
2024/02/17 16:11:28;;;;;;;9.73;8.48;;;;;;;;;;10279239;28;20027;-62
2024/02/17 16:16:29;;;;;;;13.27;8.18;;;;;;;;;;10278132;28;20038;-62
2024/02/17 16:21:31;;;;;;;15.35;9.73;;;;;;;;;;10271317;28;20038;-62
2024/02/17 16:26:36;;;;;;;12.65;9.07;;;;;;;;;;10280710;28;20057;-62
2024/02/17 16:31:37;;;;;;;13.13;10.02;;;;;;;;;;10284500;28;20058;-62
2024/02/17 16:36:37;;;;;;;12.63;9.13;;;;;;;;;;10283716;28;20059;-62
2024/02/17 16:41:38;;;;;;;10.93;9.27;;;;;;;;;;10283176;28;20486;-62
2024/02/17 16:46:39;;;;;;;11.45;8.95;;;;;;;;;;10279972;28;20090;-61
2024/02/17 16:51:39;;;;;;;11.18;8.90;;;;;;;;;;10270880;28;20031;-62
2024/02/17 16:56:40;;;;;;;11.63;8.63;;;;;;;;;;10282788;28;20034;-62
2024/02/17 17:01:41;;;;;;;13.85;8.93;;;;;;;;;;10283224;28;20404;-62
2024/02/17 17:06:41;;;;;;;11.52;9.18;;;;;;;;;;10272462;28;20135;-62
2024/02/17 17:11:42;;;;;;;11.32;8.63;;;;;;;;;;10283295;28;20026;-61
2024/02/17 17:16:43;;;;;;;12.00;9.40;;;;;;;;;;10282325;28;20081;-62
2024/02/17 17:21:43;;;;;;;13.52;9.73;;;;;;;;;;10282105;28;20402;-61
2024/02/17 17:26:44;;;;;;;11.60;8.43;;;;;;;;;;10264014;28;20410;-61
2024/02/17 17:31:46;;;;;;;10.27;8.43;;;;;;;;;;10280439;28;20391;-62
2024/02/17 17:36:47;;;;;;;12.55;9.70;;;;;;;;;;10272043;28;20031;-62
2024/02/17 17:41:48;;;;;;;13.60;9.80;;;;;;;;;;10277833;28;20039;-62
2024/02/17 17:46:54;;;;;;;12.95;9.60;;;;;;;;;;10282223;28;20031;-62
2024/02/17 17:51:54;;;;;;;13.57;8.85;;;;;;;;;;10270763;28;20035;-62
2024/02/17 17:56:55;;;;;;;13.48;9.75;;;;;;;;;;10280734;28;20073;-62
2024/02/17 18:01:56;;;;;;;10.07;8.68;;;;;;;;;;10279580;28;20030;-62
2024/02/17 18:06:56;;;;;;;13.95;10.30;;;;;;;;;;10290577;28;20253;-62
2024/02/17 18:11:57;;;;;;;12.05;9.25;;;;;;;;;;10274373;28;20035;-62
2024/02/17 18:16:57;;;;;;;11.65;8.73;;;;;;;;;;10289529;28;20035;-62
2024/02/17 18:21:58;;;;;;;14.70;9.50;;;;;;;;;;10289652;28;20620;-61
2024/02/17 18:26:58;;;;;;;20.20;9.27;;;;;;;;;;10285595;28;20042;-60
2024/02/17 18:31:59;;;;;;;17.10;9.38;;;;;;;;;;10271436;28;20074;-58
2024/02/17 18:37:00;;;;;;;12.40;9.13;;;;;;;;;;10288070;28;20035;-61
2024/02/17 18:42:01;;;;;;;12.65;9.13;;;;;;;;;;10284728;28;20062;-60
2024/02/17 18:47:02;;;;;;;29.17;10.48;;;;;;;;;;10285753;28;20042;-58
2024/02/17 18:52:04;;;;;;;17.08;9.63;;;;;;;;;;10274014;28;20030;-58
2024/02/17 18:57:05;;;;;;;24.85;9.43;;;;;;;;;;10287272;28;20057;-61
2024/02/17 19:02:05;;;;;;;18.17;9.38;;;;;;;;;;10293768;28;20118;-58
2024/02/17 19:07:06;;;;;;;18.90;9.93;;;;;;;;;;10293000;28;20138;-58
2024/02/17 19:12:07;;;;;;;13.65;9.25;;;;;;;;;;10278070;28;20038;-58
2024/02/17 19:17:07;;;;;;;15.75;8.77;;;;;;;;;;10285528;28;20035;-58
2024/02/17 19:22:08;;;;;;;15.55;8.55;;;;;;;;;;10285054;28;20039;-58
2024/02/17 19:27:08;;;;;;;15.43;9.30;;;;;;;;;;10281806;28;20066;-59
2024/02/17 19:32:09;;;;;;;27.27;10.45;;;;;;;;;;10287594;28;20027;-59
2024/02/17 19:37:09;;;;;;;33.42;10.60;;;;;;;;;;10275084;28;20022;-59
2024/02/17 19:42:13;;;;;;;18.63;8.27;;;;;;;;;;10276116;28;20058;-61
2024/02/17 19:47:15;;;;;;;18.50;10.32;;;;;;;;;;10271150;28;20034;-60
2024/02/17 19:52:16;;;;;;;23.02;10.25;;;;;;;;;;10286313;28;20150;-60
2024/02/17 19:57:18;;;;;;;20.73;9.68;;;;;;;;;;10267636;28;20178;-60
2024/02/17 20:02:18;;;;;;;21.13;9.77;;;;;;;;;;10284062;28;20069;-60
2024/02/17 20:07:23;;;;;;;21.25;11.27;;;;;;;;;;10271899;28;20093;-61
2024/02/17 20:12:43;;;;;;;20.73;10.90;;;;;;;;;;10279824;28;20030;-61
2024/02/17 20:17:44;;;;;;;36.63;12.30;;;;;;;;;;10270224;28;20043;-61
2024/02/17 20:22:45;;;;;;;27.35;11.40;;;;;;;;;;10261506;28;20046;-61
2024/02/17 20:27:46;;;;;;;22.13;10.38;;;;;;;;;;10275222;28;20083;-61
2024/02/17 20:32:46;;;;;;;16.77;10.75;;;;;;;;;;10265821;28;20418;-60
2024/02/17 20:37:47;;;;;;;19.63;10.90;;;;;;;;;;10270693;28;20379;-60
2024/02/17 20:42:47;;;;;;;18.95;10.82;;;;;;;;;;10263078;28;20623;-60
2024/02/17 20:47:48;;;;;;;13.88;9.23;;;;;;;;;;10266148;28;20183;-60
2024/02/17 20:52:49;;;;;;;17.38;10.75;;;;;;;;;;10269044;28;20042;-60
2024/02/17 20:57:53;;;;;;;21.27;10.00;;;;;;;;;;10267023;28;20042;-59
2024/02/17 21:02:54;;;;;;;18.80;10.60;;;;;;;;;;10280894;28;20030;-60
2024/02/17 21:07:55;;;;;;;19.85;10.15;;;;;;;;;;10276894;28;20387;-60
2024/02/17 21:12:56;;;;;;;21.10;10.07;;;;;;;;;;10268456;28;20077;-60
2024/02/17 21:17:56;;;;;;;22.65;9.70;;;;;;;;;;10276455;28;20434;-60
2024/02/17 21:22:57;;;;;;;15.40;9.40;;;;;;;;;;10280158;28;20061;-60
2024/02/17 21:27:59;;;;;;;16.83;9.00;;;;;;;;;;10267026;28;20259;-60
2024/02/17 21:33:00;;;;;;;16.42;8.68;;;;;;;;;;10281332;28;20510;-60
2024/02/17 21:38:00;;;;;;;19.00;9.10;;;;;;;;;;10280952;28;20093;-60
2024/02/17 21:43:01;;;;;;;15.90;9.82;;;;;;;;;;10288256;28;20755;-61
2024/02/17 21:48:03;;;;;;;17.35;8.43;;;;;;;;;;10283216;28;20390;-60
2024/02/17 21:53:04;;;;;;;11.48;8.55;;;;;;;;;;10277150;28;20141;-61
2024/02/17 21:58:05;;;;;;;16.05;8.43;;;;;;;;;;10279473;28;20034;-60
2024/02/17 22:03:05;;;;;;;17.23;8.65;;;;;;;;;;10269258;28;20486;-60
2024/02/17 22:08:06;;;;;;;13.27;8.98;;;;;;;;;;10279645;28;20046;-61
2024/02/17 22:13:07;;;;;;;17.02;8.77;;;;;;;;;;10286002;28;20023;-61
2024/02/17 22:18:08;;;;;;;17.23;8.50;;;;;;;;;;10281848;28;20406;-60
2024/02/17 22:23:09;;;;;;;19.05;8.20;;;;;;;;;;10282700;28;20034;-61
2024/02/17 22:28:10;;;;;;;15.93;8.35;;;;;;;;;;10277869;28;20100;-60
2024/02/17 22:33:10;;;;;;;13.45;8.55;;;;;;;;;;10281957;28;20081;-60
2024/02/17 22:38:11;;;;;;;19.42;8.80;;;;;;;;;;10280007;28;20050;-60
2024/02/17 22:43:11;;;;;;;16.33;8.27;;;;;;;;;;10286508;28;20123;-60
2024/02/17 22:48:12;;;;;;;12.70;8.27;;;;;;;;;;10271313;28;20035;-60
2024/02/17 22:53:13;;;;;;;9.48;7.82;;;;;;;;;;10282876;28;20034;-60
2024/02/17 22:58:14;;;;;;;11.40;7.93;;;;;;;;;;10286539;28;20027;-60
2024/02/17 23:03:14;;;;;;;13.43;8.43;;;;;;;;;;10277582;28;20031;-60
2024/02/17 23:08:15;;;;;;;13.48;8.88;;;;;;;;;;10282260;28;20038;-60
2024/02/17 23:13:18;;;;;;;12.50;8.13;;;;;;;;;;10286273;28;20039;-60
2024/02/17 23:18:18;;;;;;;9.07;8.02;;;;;;;;;;10267220;28;20066;-60
2024/02/17 23:23:19;;;;;;;11.88;8.13;;;;;;;;;;10279817;28;20157;-60
2024/02/17 23:28:20;;;;;;;11.70;8.43;;;;;;;;;;10282320;28;20026;-60
2024/02/17 23:33:20;;;;;;;13.93;8.38;;;;;;;;;;10296438;28;20026;-60
2024/02/17 23:38:21;;;;;;;12.30;8.32;;;;;;;;;;10290214;28;20803;-60
2024/02/17 23:43:22;;;;;;;15.20;8.88;;;;;;;;;;10288011;28;20034;-60
2024/02/17 23:48:22;;;;;;;15.10;8.52;;;;;;;;;;10274154;28;20035;-60
2024/02/17 23:53:23;;;;;;;11.35;8.70;;;;;;;;;;10297034;28;20030;-60
2024/02/17 23:58:23;;;;;;;12.30;8.35;;;;;;;;;;10282582;28;20046;-60
